createdAt,value
2019-03-11T00:00:39.983Z,0.00
2019-03-11T00:01:39.956Z,0.00
2019-03-11T00:02:39.944Z,0.00
2019-03-11T00:03:39.932Z,0.00
2019-03-11T00:04:39.920Z,0.00
2019-03-11T00:05:40.013Z,0.00
2019-03-11T00:06:39.920Z,0.00
2019-03-11T00:07:39.888Z,0.00
2019-03-11T00:08:39.896Z,0.00
2019-03-11T00:09:39.896Z,0.00
2019-03-11T00:10:39.883Z,0.00
2019-03-11T00:11:39.840Z,0.00
2019-03-11T00:12:39.855Z,0.00
2019-03-11T00:13:39.818Z,0.00
2019-03-11T00:14:39.809Z,0.00
2019-03-11T00:15:39.804Z,0.00
2019-03-11T00:16:39.797Z,0.00
2019-03-11T00:17:39.778Z,0.00
2019-03-11T00:18:39.766Z,0.00
2019-03-11T00:19:39.751Z,0.00
2019-03-11T00:20:39.760Z,0.00
2019-03-11T00:21:39.753Z,0.00
2019-03-11T00:22:39.723Z,0.00
2019-03-11T00:23:39.707Z,0.00
2019-03-11T00:24:39.703Z,0.00
2019-03-11T00:25:39.692Z,0.00
2019-03-11T00:26:39.703Z,0.00
2019-03-11T00:27:39.679Z,0.00
2019-03-11T00:28:39.665Z,0.00
2019-03-11T00:29:39.656Z,0.00
2019-03-11T00:30:39.635Z,0.00
2019-03-11T00:31:39.619Z,0.00
2019-03-11T00:32:39.631Z,0.00
2019-03-11T00:33:39.594Z,0.00
2019-03-11T00:34:39.588Z,0.00
2019-03-11T00:35:39.602Z,0.00
2019-03-11T00:36:39.562Z,0.00
2019-03-11T00:37:39.578Z,0.00
2019-03-11T00:38:39.574Z,0.00
2019-03-11T00:39:39.544Z,0.00
2019-03-11T00:40:39.524Z,0.00
2019-03-11T00:41:39.504Z,0.00
2019-03-11T00:42:39.510Z,0.00
2019-03-11T00:43:39.502Z,0.00
2019-03-11T00:44:39.471Z,0.00
2019-03-11T00:45:39.464Z,0.00
2019-03-11T00:46:39.454Z,0.00
2019-03-11T00:47:39.460Z,0.00
2019-03-11T00:48:39.451Z,0.00
2019-03-11T00:49:39.428Z,0.00
2019-03-11T00:50:39.430Z,0.00
2019-03-11T00:51:39.405Z,0.00
2019-03-11T00:52:39.482Z,0.00
2019-03-11T00:53:39.386Z,0.00
2019-03-11T00:54:39.378Z,0.00
2019-03-11T00:55:39.385Z,0.00
2019-03-11T00:56:39.348Z,0.00
2019-03-11T00:57:39.330Z,0.00
2019-03-11T00:58:39.326Z,0.00
2019-03-11T00:59:39.357Z,0.00
2019-03-11T01:00:39.297Z,0.00
2019-03-11T01:01:39.291Z,0.00
2019-03-11T01:02:39.274Z,0.00
2019-03-11T01:03:39.262Z,0.00
2019-03-11T01:04:39.282Z,0.00
2019-03-11T01:05:39.275Z,0.00
2019-03-11T01:06:39.229Z,0.00
2019-03-11T01:07:39.226Z,0.00
2019-03-11T01:08:39.219Z,0.00
2019-03-11T01:09:39.195Z,0.00
2019-03-11T01:10:39.219Z,0.00
2019-03-11T01:11:39.212Z,0.00
2019-03-11T01:12:39.167Z,0.00
2019-03-11T01:13:39.155Z,0.00
2019-03-11T01:14:39.146Z,0.00
2019-03-11T01:15:39.133Z,0.00
2019-03-11T01:16:39.133Z,0.00
2019-03-11T01:17:39.129Z,0.00
2019-03-11T01:18:39.100Z,0.00
2019-03-11T01:19:39.125Z,0.00
2019-03-11T01:20:39.109Z,0.00
2019-03-11T01:21:39.079Z,0.00
2019-03-11T01:22:39.090Z,0.00
2019-03-11T01:23:39.041Z,0.00
2019-03-11T01:24:39.032Z,0.00
2019-03-11T01:25:39.024Z,0.00
2019-03-11T01:26:39.068Z,0.00
2019-03-11T01:27:39.025Z,0.00
2019-03-11T01:28:39.005Z,0.00
2019-03-11T01:29:38.996Z,0.00
2019-03-11T01:30:38.978Z,0.00
2019-03-11T01:31:38.968Z,0.00
2019-03-11T01:32:38.956Z,0.00
2019-03-11T01:33:38.958Z,0.00
2019-03-11T01:34:38.949Z,0.00
2019-03-11T01:35:38.915Z,0.00
2019-03-11T01:36:38.898Z,0.00
2019-03-11T01:37:38.902Z,0.00
2019-03-11T01:38:38.895Z,0.00
2019-03-11T01:39:38.906Z,0.00
2019-03-11T01:40:38.868Z,0.00
2019-03-11T01:41:38.855Z,0.00
2019-03-11T01:42:38.838Z,0.00
2019-03-11T01:43:38.856Z,0.00
2019-03-11T01:44:38.820Z,0.00
2019-03-11T01:45:38.837Z,0.00
2019-03-11T01:46:38.792Z,0.00
2019-03-11T01:47:38.794Z,0.00
2019-03-11T01:48:38.777Z,0.00
2019-03-11T01:49:38.769Z,0.00
2019-03-11T01:50:38.749Z,0.00
2019-03-11T01:51:38.744Z,0.00
2019-03-11T01:52:38.722Z,0.00
2019-03-11T01:53:38.718Z,0.00
2019-03-11T01:54:38.770Z,0.00
2019-03-11T01:55:38.688Z,0.00
2019-03-11T01:56:38.685Z,0.00
2019-03-11T01:57:38.673Z,0.00
2019-03-11T01:58:38.684Z,0.00
2019-03-11T01:59:38.647Z,0.00
2019-03-11T02:00:38.663Z,0.00
2019-03-11T02:01:38.636Z,0.00
2019-03-11T02:02:38.612Z,0.00
2019-03-11T02:03:38.618Z,0.00
2019-03-11T02:04:38.598Z,0.00
2019-03-11T02:05:38.605Z,0.00
2019-03-11T02:06:38.610Z,0.00
2019-03-11T02:07:38.585Z,0.00
2019-03-11T02:08:38.555Z,0.00
2019-03-11T02:09:38.562Z,0.00
2019-03-11T02:10:38.542Z,0.00
2019-03-11T02:11:38.521Z,0.00
2019-03-11T02:12:38.501Z,0.00
2019-03-11T02:13:38.497Z,0.00
2019-03-11T02:14:38.483Z,0.00
2019-03-11T02:15:38.470Z,0.00
2019-03-11T02:16:38.500Z,0.00
2019-03-11T02:17:38.517Z,0.00
2019-03-11T02:18:38.447Z,0.00
2019-03-11T02:19:38.436Z,0.00
2019-03-11T02:20:39.054Z,0.00
2019-03-11T02:21:38.402Z,0.00
2019-03-11T02:22:38.414Z,0.00
2019-03-11T02:23:38.396Z,0.00
2019-03-11T02:24:38.392Z,0.00
2019-03-11T02:25:38.369Z,0.00
2019-03-11T02:26:38.361Z,0.00
2019-03-11T02:27:38.376Z,0.00
2019-03-11T02:28:38.335Z,0.00
2019-03-11T02:29:38.332Z,0.00
2019-03-11T02:30:38.303Z,0.00
2019-03-11T02:31:38.298Z,0.00
2019-03-11T02:32:38.301Z,0.00
2019-03-11T02:33:38.274Z,0.00
2019-03-11T02:34:38.261Z,0.00
2019-03-11T02:35:38.267Z,0.00
2019-03-11T02:36:38.293Z,0.00
2019-03-11T02:37:38.241Z,0.00
2019-03-11T02:38:45.579Z,0.00
2019-03-11T02:39:38.223Z,0.00
2019-03-11T02:40:38.194Z,0.00
2019-03-11T02:41:38.271Z,0.00
2019-03-11T02:42:38.219Z,0.00
2019-03-11T02:43:38.186Z,0.00
2019-03-11T02:44:38.157Z,0.00
2019-03-11T02:45:38.174Z,0.00
2019-03-11T02:46:38.142Z,0.00
2019-03-11T02:47:38.126Z,0.00
2019-03-11T02:48:38.111Z,0.00
2019-03-11T02:49:38.109Z,0.00
2019-03-11T02:50:38.127Z,0.00
2019-03-11T02:51:38.087Z,0.00
2019-03-11T02:52:38.109Z,0.00
2019-03-11T02:53:38.062Z,0.00
2019-03-11T02:54:38.089Z,0.00
2019-03-11T02:55:38.033Z,0.00
2019-03-11T02:56:38.068Z,0.00
2019-03-11T02:57:38.020Z,0.00
2019-03-11T02:58:37.997Z,0.00
2019-03-11T02:59:38.008Z,0.00
2019-03-11T03:00:37.981Z,0.00
2019-03-11T03:01:37.964Z,0.00
2019-03-11T03:02:38.043Z,0.00
2019-03-11T03:03:37.946Z,0.00
2019-03-11T03:04:37.929Z,0.00
2019-03-11T03:05:37.950Z,0.00
2019-03-11T03:06:37.910Z,0.00
2019-03-11T03:07:37.899Z,0.00
2019-03-11T03:08:37.890Z,0.00
2019-03-11T03:09:37.880Z,0.00
2019-03-11T03:10:37.882Z,0.00
2019-03-11T03:11:37.861Z,0.00
2019-03-11T03:12:37.874Z,0.00
2019-03-11T03:13:37.845Z,0.00
2019-03-11T03:14:37.822Z,0.00
2019-03-11T03:15:37.816Z,0.00
2019-03-11T03:16:37.816Z,0.00
2019-03-11T03:17:37.793Z,0.00
2019-03-11T03:18:37.799Z,0.00
2019-03-11T03:19:37.772Z,0.00
2019-03-11T03:20:37.752Z,0.00
2019-03-11T03:21:37.748Z,0.00
2019-03-11T03:22:37.737Z,0.00
2019-03-11T03:23:37.720Z,0.00
2019-03-11T03:24:37.716Z,0.00
2019-03-11T03:25:37.713Z,0.00
2019-03-11T03:26:37.717Z,0.00
2019-03-11T03:27:37.741Z,0.00
2019-03-11T03:28:37.680Z,0.00
2019-03-11T03:29:37.702Z,0.00
2019-03-11T03:30:37.650Z,0.00
2019-03-11T03:31:37.654Z,0.00
2019-03-11T03:32:37.647Z,0.00
2019-03-11T03:33:37.626Z,0.00
2019-03-11T03:34:37.624Z,0.00
2019-03-11T03:35:37.591Z,0.00
2019-03-11T03:36:37.578Z,0.00
2019-03-11T03:37:37.585Z,0.00
2019-03-11T03:38:37.566Z,0.00
2019-03-11T03:39:37.569Z,0.00
2019-03-11T03:40:37.562Z,0.00
2019-03-11T03:41:37.526Z,0.00
2019-03-11T03:42:37.620Z,0.00
2019-03-11T03:43:37.505Z,0.00
2019-03-11T03:44:37.491Z,0.00
2019-03-11T03:45:37.475Z,0.00
2019-03-11T03:46:37.475Z,0.00
2019-03-11T03:47:37.460Z,0.00
2019-03-11T03:48:37.628Z,0.00
2019-03-11T03:49:37.434Z,0.00
2019-03-11T03:50:37.463Z,0.00
2019-03-11T03:51:37.410Z,0.00
2019-03-11T03:52:37.402Z,0.00
2019-03-11T03:53:37.414Z,0.00
2019-03-11T03:54:37.380Z,0.00
2019-03-11T03:55:37.411Z,0.00
2019-03-11T03:56:37.360Z,0.00
2019-03-11T03:57:37.349Z,0.00
2019-03-11T03:58:37.333Z,0.00
2019-03-11T03:59:37.347Z,0.00
2019-03-11T04:00:37.317Z,0.00
2019-03-11T04:01:37.305Z,0.00
2019-03-11T04:02:37.295Z,0.00
2019-03-11T04:03:37.301Z,0.00
2019-03-11T04:04:37.319Z,0.00
2019-03-11T04:05:37.289Z,0.00
2019-03-11T04:06:37.255Z,0.00
2019-03-11T04:07:37.259Z,0.00
2019-03-11T04:08:37.228Z,0.00
2019-03-11T04:09:37.210Z,0.00
2019-03-11T04:10:37.245Z,0.00
2019-03-11T04:11:37.195Z,0.00
2019-03-11T04:12:37.177Z,0.00
2019-03-11T04:13:37.167Z,0.00
2019-03-11T04:14:37.168Z,0.00
2019-03-11T04:15:37.143Z,0.00
2019-03-11T04:16:37.172Z,0.00
2019-03-11T04:17:37.122Z,0.00
2019-03-11T04:18:37.113Z,0.00
2019-03-11T04:19:37.097Z,0.00
2019-03-11T04:20:37.088Z,0.00
2019-03-11T04:21:37.096Z,0.00
2019-03-11T04:22:37.117Z,0.00
2019-03-11T04:23:37.061Z,0.00
2019-03-11T04:24:37.045Z,0.00
2019-03-11T04:25:37.037Z,0.00
2019-03-11T04:26:37.021Z,0.00
2019-03-11T04:27:37.030Z,0.00
2019-03-11T04:28:37.029Z,0.00
2019-03-11T04:29:36.998Z,0.00
2019-03-11T04:30:37.001Z,0.00
2019-03-11T04:31:36.985Z,0.00
2019-03-11T04:32:36.978Z,0.00
2019-03-11T04:33:36.944Z,0.00
2019-03-11T04:34:36.953Z,0.00
2019-03-11T04:35:36.922Z,0.00
2019-03-11T04:36:36.912Z,0.00
2019-03-11T04:37:36.904Z,0.00
2019-03-11T04:38:36.894Z,0.00
2019-03-11T04:39:36.917Z,0.00
2019-03-11T04:40:36.875Z,0.00
2019-03-11T04:41:36.884Z,0.00
2019-03-11T04:42:36.855Z,0.00
2019-03-11T04:43:36.857Z,0.00
2019-03-11T04:44:36.820Z,0.00
2019-03-11T04:45:36.817Z,0.00
2019-03-11T04:46:36.889Z,0.00
2019-03-11T04:47:36.787Z,0.00
2019-03-11T04:48:36.793Z,0.00
2019-03-11T04:49:36.785Z,0.00
2019-03-11T04:50:36.771Z,0.00
2019-03-11T04:51:36.749Z,0.00
2019-03-11T04:52:36.739Z,0.00
2019-03-11T04:53:36.732Z,0.00
2019-03-11T04:54:36.727Z,0.00
2019-03-11T04:55:36.710Z,0.00
2019-03-11T04:56:36.696Z,0.00
2019-03-11T04:57:36.678Z,0.00
2019-03-11T04:58:36.707Z,0.00
2019-03-11T04:59:36.673Z,0.00
2019-03-11T05:00:36.666Z,0.00
2019-03-11T05:01:36.634Z,0.00
2019-03-11T05:02:37.579Z,0.00
2019-03-11T05:03:36.610Z,0.00
2019-03-11T05:04:36.619Z,0.00
2019-03-11T05:05:36.658Z,0.00
2019-03-11T05:06:36.576Z,0.00
2019-03-11T05:07:36.577Z,0.00
2019-03-11T05:08:36.559Z,0.00
2019-03-11T05:09:36.551Z,0.00
2019-03-11T05:10:36.547Z,0.00
2019-03-11T05:11:36.541Z,0.00
2019-03-11T05:12:36.529Z,0.00
2019-03-11T05:13:36.520Z,0.00
2019-03-11T05:14:36.490Z,0.00
2019-03-11T05:15:36.534Z,0.00
2019-03-11T05:16:36.501Z,0.00
2019-03-11T05:17:36.457Z,0.00
2019-03-11T05:18:36.497Z,0.00
2019-03-11T05:19:36.451Z,4.00
2019-03-11T05:20:36.441Z,4.00
2019-03-11T05:21:36.445Z,4.00
2019-03-11T05:22:44.129Z,0.00
2019-03-11T05:23:36.398Z,4.00
2019-03-11T05:24:36.378Z,4.00
2019-03-11T05:25:36.372Z,4.00
2019-03-11T05:26:36.361Z,4.00
2019-03-11T05:27:36.358Z,4.00
2019-03-11T05:28:36.338Z,4.00
2019-03-11T05:29:36.327Z,4.00
2019-03-11T05:30:36.343Z,16.00
2019-03-11T05:31:36.302Z,20.00
2019-03-11T05:32:36.288Z,20.00
2019-03-11T05:33:36.296Z,20.00
2019-03-11T05:34:36.297Z,24.00
2019-03-11T05:35:36.256Z,12.00
2019-03-11T05:36:36.266Z,12.00
2019-03-11T05:37:36.238Z,12.00
2019-03-11T05:38:36.261Z,16.00
2019-03-11T05:39:36.233Z,20.00
2019-03-11T05:40:36.204Z,20.00
2019-03-11T05:41:37.104Z,20.00
2019-03-11T05:42:36.191Z,20.00
2019-03-11T05:43:36.175Z,24.00
2019-03-11T05:44:36.166Z,24.00
2019-03-11T05:45:36.176Z,28.00
2019-03-11T05:46:36.148Z,32.00
2019-03-11T05:47:36.139Z,32.00
2019-03-11T05:48:36.136Z,36.00
2019-03-11T05:49:36.144Z,44.00
2019-03-11T05:50:36.098Z,44.00
2019-03-11T05:51:36.088Z,52.00
2019-03-11T05:52:36.073Z,52.00
2019-03-11T05:53:36.068Z,56.00
2019-03-11T05:54:36.050Z,60.00
2019-03-11T05:55:36.045Z,60.00
2019-03-11T05:56:36.034Z,68.00
2019-03-11T05:57:36.021Z,72.00
2019-03-11T05:58:36.013Z,84.00
2019-03-11T05:59:36.010Z,84.00
2019-03-11T06:00:36.003Z,92.00
2019-03-11T06:01:35.973Z,96.00
2019-03-11T06:02:36.639Z,96.00
2019-03-11T06:03:35.964Z,100.00
2019-03-11T06:04:35.944Z,108.00
2019-03-11T06:05:35.940Z,116.00
2019-03-11T06:06:35.926Z,128.00
2019-03-11T06:07:35.927Z,136.00
2019-03-11T06:08:35.899Z,168.00
2019-03-11T06:09:35.896Z,176.00
2019-03-11T06:10:35.879Z,180.00
2019-03-11T06:11:35.872Z,176.00
2019-03-11T06:12:35.873Z,180.00
2019-03-11T06:13:36.381Z,204.00
2019-03-11T06:14:35.851Z,256.00
2019-03-11T06:15:35.830Z,264.00
2019-03-11T06:16:35.836Z,264.00
2019-03-11T06:17:35.927Z,284.00
2019-03-11T06:18:35.797Z,332.00
2019-03-11T06:19:35.775Z,316.00
2019-03-11T06:20:35.803Z,320.00
2019-03-11T06:21:35.759Z,380.00
2019-03-11T06:22:35.750Z,416.00
2019-03-11T06:23:35.736Z,400.00
2019-03-11T06:24:35.732Z,324.00
2019-03-11T06:25:35.716Z,288.00
2019-03-11T06:26:35.699Z,252.00
2019-03-11T06:27:35.713Z,260.00
2019-03-11T06:28:35.706Z,248.00
2019-03-11T06:29:35.723Z,240.00
2019-03-11T06:30:35.681Z,224.00
2019-03-11T06:31:35.642Z,228.00
2019-03-11T06:32:35.640Z,224.00
2019-03-11T06:33:35.641Z,252.00
2019-03-11T06:34:35.621Z,272.00
2019-03-11T06:35:35.634Z,324.00
2019-03-11T06:36:35.601Z,364.00
2019-03-11T06:37:35.576Z,384.00
2019-03-11T06:38:35.675Z,428.00
2019-03-11T06:39:35.556Z,448.00
2019-03-11T06:40:35.544Z,484.00
2019-03-11T06:41:35.547Z,428.00
2019-03-11T06:42:35.542Z,364.00
2019-03-11T06:43:35.614Z,320.00
2019-03-11T06:44:35.535Z,300.00
2019-03-11T06:45:35.492Z,296.00
2019-03-11T06:46:35.495Z,332.00
2019-03-11T06:47:35.562Z,388.00
2019-03-11T06:48:35.507Z,376.00
2019-03-11T06:49:35.486Z,360.00
2019-03-11T06:50:35.452Z,376.00
2019-03-11T06:51:35.439Z,380.00
2019-03-11T06:52:35.424Z,380.00
2019-03-11T06:53:35.391Z,372.00
2019-03-11T06:54:35.401Z,352.00
2019-03-11T06:55:35.401Z,368.00
2019-03-11T06:56:35.368Z,424.00
2019-03-11T06:57:35.362Z,484.00
2019-03-11T06:58:35.347Z,596.00
2019-03-11T07:00:34.536Z,628.00
2019-03-11T07:01:34.534Z,560.00
2019-03-11T07:02:34.506Z,524.00
2019-03-11T07:03:41.801Z,496.00
2019-03-11T07:04:34.496Z,572.00
2019-03-11T07:05:34.476Z,580.00
2019-03-11T07:06:34.499Z,516.00
2019-03-11T07:07:34.440Z,516.00
2019-03-11T07:08:34.446Z,520.00
2019-03-11T07:09:34.450Z,496.00
2019-03-11T07:10:34.415Z,432.00
2019-03-11T07:11:34.476Z,400.00
2019-03-11T07:12:34.441Z,420.00
2019-03-11T07:13:34.381Z,468.00
2019-03-11T07:14:34.459Z,444.00
2019-03-11T07:15:34.370Z,404.00
2019-03-11T07:16:34.339Z,380.00
2019-03-11T07:17:34.369Z,308.00
2019-03-11T07:18:34.321Z,272.00
2019-03-11T07:19:34.314Z,264.00
2019-03-11T07:20:34.313Z,284.00
2019-03-11T07:21:34.310Z,320.00
2019-03-11T07:22:34.311Z,372.00
2019-03-11T07:23:34.264Z,440.00
2019-03-11T07:24:35.250Z,520.00
2019-03-11T07:25:34.290Z,516.00
2019-03-11T07:26:34.230Z,524.00
2019-03-11T07:27:34.272Z,512.00
2019-03-11T07:28:34.263Z,440.00
2019-03-11T07:29:34.223Z,420.00
2019-03-11T07:30:34.234Z,440.00
2019-03-11T07:31:34.194Z,456.00
2019-03-11T07:32:34.211Z,424.00
2019-03-11T07:33:34.195Z,404.00
2019-03-11T07:34:34.141Z,404.00
2019-03-11T07:35:34.171Z,436.00
2019-03-11T07:36:34.120Z,460.00
2019-03-11T07:37:34.120Z,416.00
2019-03-11T07:38:34.096Z,408.00
2019-03-11T07:39:34.158Z,428.00
2019-03-11T07:40:34.081Z,460.00
2019-03-11T07:41:34.102Z,524.00
2019-03-11T07:42:34.053Z,648.00
2019-03-11T07:43:34.074Z,744.00
2019-03-11T07:44:34.078Z,820.00
2019-03-11T07:45:34.046Z,816.00
2019-03-11T07:46:34.073Z,704.00
2019-03-11T07:47:34.137Z,552.00
2019-03-11T07:48:33.989Z,464.00
2019-03-11T07:49:34.001Z,468.00
2019-03-11T07:50:33.965Z,496.00
2019-03-11T07:51:33.949Z,652.00
2019-03-11T07:52:33.957Z,704.00
2019-03-11T07:53:33.965Z,740.00
2019-03-11T07:54:36.131Z,768.00
2019-03-11T07:55:33.916Z,744.00
2019-03-11T07:56:33.914Z,700.00
2019-03-11T07:57:33.885Z,652.00
2019-03-11T07:58:33.872Z,620.00
2019-03-11T07:59:33.857Z,584.00
2019-03-11T08:00:33.897Z,584.00
2019-03-11T08:01:33.840Z,588.00
2019-03-11T08:02:33.832Z,604.00
2019-03-11T08:03:33.816Z,608.00
2019-03-11T08:04:33.819Z,596.00
2019-03-11T08:05:33.896Z,608.00
2019-03-11T08:06:33.782Z,612.00
2019-03-11T08:07:33.791Z,576.00
2019-03-11T08:08:33.845Z,564.00
2019-03-11T08:09:37.871Z,588.00
2019-03-11T08:10:33.754Z,592.00
2019-03-11T08:11:33.755Z,568.00
2019-03-11T08:12:33.718Z,516.00
2019-03-11T08:13:33.735Z,476.00
2019-03-11T08:14:33.733Z,468.00
2019-03-11T08:15:33.718Z,472.00
2019-03-11T08:16:33.786Z,456.00
2019-03-11T08:17:33.658Z,444.00
2019-03-11T08:18:35.205Z,480.00
2019-03-11T08:19:33.664Z,472.00
2019-03-11T08:20:33.623Z,436.00
2019-03-11T08:21:33.650Z,404.00
2019-03-11T08:22:33.606Z,400.00
2019-03-11T08:23:35.715Z,408.00
2019-03-11T08:24:33.671Z,400.00
2019-03-11T08:25:33.610Z,368.00
2019-03-11T08:26:33.589Z,376.00
2019-03-11T08:27:33.566Z,404.00
2019-03-11T08:28:33.593Z,420.00
2019-03-11T08:29:33.521Z,436.00
2019-03-11T08:30:33.538Z,496.00
2019-03-11T08:31:33.537Z,540.00
2019-03-11T08:32:33.550Z,548.00
2019-03-11T08:33:33.487Z,568.00
2019-03-11T08:34:33.533Z,572.00
2019-03-11T08:35:33.498Z,524.00
2019-03-11T08:36:33.462Z,484.00
2019-03-11T08:37:33.455Z,476.00
2019-03-11T08:38:33.493Z,468.00
2019-03-11T08:39:33.464Z,504.00
2019-03-11T08:40:33.446Z,596.00
2019-03-11T08:41:33.407Z,612.00
2019-03-11T08:42:33.438Z,648.00
2019-03-11T08:43:33.383Z,688.00
2019-03-11T08:44:33.382Z,708.00
2019-03-11T08:45:33.370Z,740.00
2019-03-11T08:46:33.392Z,760.00
2019-03-11T08:47:33.366Z,764.00
2019-03-11T08:48:33.365Z,720.00
2019-03-11T08:49:33.328Z,628.00
2019-03-11T08:50:33.296Z,576.00
2019-03-11T08:51:33.292Z,620.00
2019-03-11T08:52:33.320Z,728.00
2019-03-11T08:53:33.338Z,596.00
2019-03-11T08:54:33.299Z,532.00
2019-03-11T08:55:33.272Z,556.00
2019-03-11T08:56:33.244Z,580.00
2019-03-11T08:57:33.222Z,412.00
2019-03-11T08:58:33.238Z,276.00
2019-03-11T08:59:40.305Z,236.00
2019-03-11T09:00:33.190Z,160.00
2019-03-11T09:01:33.201Z,116.00
2019-03-11T09:02:33.161Z,140.00
2019-03-11T09:03:33.144Z,144.00
2019-03-11T09:04:33.184Z,136.00
2019-03-11T09:05:33.132Z,120.00
2019-03-11T09:06:33.115Z,140.00
2019-03-11T09:07:33.104Z,148.00
2019-03-11T09:08:33.200Z,188.00
2019-03-11T09:09:33.102Z,192.00
2019-03-11T09:10:33.098Z,172.00
2019-03-11T09:11:33.062Z,200.00
2019-03-11T09:12:33.049Z,204.00
2019-03-11T09:13:33.045Z,236.00
2019-03-11T09:14:33.053Z,232.00
2019-03-11T09:15:33.010Z,232.00
2019-03-11T09:16:33.013Z,248.00
2019-03-11T09:17:33.006Z,284.00
2019-03-11T09:18:33.024Z,308.00
2019-03-11T09:19:34.190Z,292.00
2019-03-11T09:20:32.966Z,328.00
2019-03-11T09:21:32.947Z,364.00
2019-03-11T09:22:32.944Z,428.00
2019-03-11T09:23:32.959Z,452.00
2019-03-11T09:24:32.935Z,440.00
2019-03-11T09:25:33.653Z,416.00
2019-03-11T09:26:32.910Z,380.00
2019-03-11T09:27:32.877Z,384.00
2019-03-11T09:28:33.046Z,432.00
2019-03-11T09:29:32.865Z,480.00
2019-03-11T09:30:32.842Z,556.00
2019-03-11T09:31:32.839Z,632.00
2019-03-11T09:32:32.844Z,788.00
2019-03-11T09:33:32.815Z,920.00
2019-03-11T09:34:32.839Z,1036.00
2019-03-11T09:35:32.792Z,1036.00
2019-03-11T09:36:32.815Z,992.00
2019-03-11T09:37:32.772Z,1144.00
2019-03-11T09:38:32.795Z,1112.00
2019-03-11T09:39:32.804Z,1052.00
2019-03-11T09:40:32.743Z,948.00
2019-03-11T09:41:32.740Z,1084.00
2019-03-11T09:42:32.721Z,904.00
2019-03-11T09:43:32.746Z,820.00
2019-03-11T09:44:32.712Z,880.00
2019-03-11T09:45:32.730Z,968.00
2019-03-11T09:46:32.711Z,956.00
2019-03-11T09:47:32.674Z,972.00
2019-03-11T09:48:32.661Z,1164.00
2019-03-11T09:49:32.702Z,1340.00
2019-03-11T09:50:32.657Z,1168.00
2019-03-11T09:51:32.632Z,1144.00
2019-03-11T09:52:32.633Z,1120.00
2019-03-11T09:53:32.600Z,1076.00
2019-03-11T09:54:32.600Z,1040.00
2019-03-11T09:55:39.618Z,972.00
2019-03-11T09:56:42.698Z,916.00
2019-03-11T09:57:33.562Z,864.00
2019-03-11T09:58:32.546Z,768.00
2019-03-11T09:59:32.568Z,712.00
2019-03-11T10:00:32.514Z,740.00
2019-03-11T10:01:32.597Z,840.00
2019-03-11T10:02:32.531Z,980.00
2019-03-11T10:03:32.514Z,1072.00
2019-03-11T10:04:32.471Z,1160.00
2019-03-11T10:05:32.479Z,1340.00
2019-03-11T10:06:32.509Z,1412.00
2019-03-11T10:07:32.447Z,1416.00
2019-03-11T10:08:32.453Z,1500.00
2019-03-11T10:09:32.411Z,1620.00
2019-03-11T10:10:32.463Z,1532.00
2019-03-11T10:11:32.416Z,1552.00
2019-03-11T10:12:32.378Z,1592.00
2019-03-11T10:13:32.373Z,1576.00
2019-03-11T10:14:32.376Z,1528.00
2019-03-11T10:15:32.345Z,1500.00
2019-03-11T10:16:32.357Z,1480.00
2019-03-11T10:17:32.357Z,1508.00
2019-03-11T10:18:32.310Z,1536.00
2019-03-11T10:19:32.327Z,1500.00
2019-03-11T10:20:32.292Z,1500.00
2019-03-11T10:21:32.320Z,1532.00
2019-03-11T10:22:32.292Z,1588.00
2019-03-11T10:23:39.376Z,1504.00
2019-03-11T10:24:32.244Z,1200.00
2019-03-11T10:25:32.245Z,940.00
2019-03-11T10:26:32.230Z,972.00
2019-03-11T10:27:32.251Z,1128.00
2019-03-11T10:28:32.202Z,1244.00
2019-03-11T10:29:32.220Z,1256.00
2019-03-11T10:30:32.187Z,1272.00
2019-03-11T10:31:32.173Z,1268.00
2019-03-11T10:32:32.173Z,1276.00
2019-03-11T10:33:32.154Z,1264.00
2019-03-11T10:34:32.289Z,1256.00
2019-03-11T10:35:32.920Z,1300.00
2019-03-11T10:36:32.147Z,1276.00
2019-03-11T10:37:32.107Z,1132.00
2019-03-11T10:38:32.094Z,900.00
2019-03-11T10:39:32.117Z,720.00
2019-03-11T10:40:32.084Z,636.00
2019-03-11T10:41:32.160Z,640.00
2019-03-11T10:42:32.046Z,740.00
2019-03-11T10:43:32.038Z,736.00
2019-03-11T10:44:32.031Z,644.00
2019-03-11T10:45:32.462Z,680.00
2019-03-11T10:46:32.010Z,748.00
2019-03-11T10:47:31.995Z,740.00
2019-03-11T10:48:37.145Z,760.00
2019-03-11T10:49:32.995Z,836.00
2019-03-11T10:50:31.966Z,856.00
2019-03-11T10:51:31.949Z,792.00
2019-03-11T10:52:31.946Z,724.00
2019-03-11T10:53:31.935Z,604.00
2019-03-11T10:54:31.914Z,584.00
2019-03-11T10:55:31.961Z,540.00
2019-03-11T10:56:31.892Z,532.00
2019-03-11T10:57:31.885Z,552.00
2019-03-11T10:58:31.870Z,628.00
2019-03-11T10:59:31.861Z,588.00
2019-03-11T11:00:31.884Z,680.00
2019-03-11T11:01:31.841Z,656.00
2019-03-11T11:02:31.826Z,596.00
2019-03-11T11:03:31.817Z,828.00
2019-03-11T11:04:31.800Z,556.00
2019-03-11T11:05:31.806Z,580.00
2019-03-11T11:06:31.787Z,680.00
2019-03-11T11:07:31.819Z,832.00
2019-03-11T11:08:31.757Z,1140.00
2019-03-11T11:09:31.762Z,1224.00
2019-03-11T11:10:31.770Z,1420.00
2019-03-11T11:11:31.727Z,1468.00
2019-03-11T11:12:31.718Z,1824.00
2019-03-11T11:13:31.703Z,1592.00
2019-03-11T11:14:31.691Z,1016.00
2019-03-11T11:15:31.724Z,1368.00
2019-03-11T11:16:31.693Z,1508.00
2019-03-11T11:17:31.659Z,1824.00
2019-03-11T11:18:31.667Z,1376.00
2019-03-11T11:19:31.647Z,1296.00
2019-03-11T11:20:31.649Z,1436.00
2019-03-11T11:21:31.612Z,1388.00
2019-03-11T11:22:31.628Z,1808.00
2019-03-11T11:23:31.599Z,1456.00
2019-03-11T11:24:31.577Z,1704.00
2019-03-11T11:25:31.579Z,1096.00
2019-03-11T11:26:31.635Z,852.00
2019-03-11T11:27:31.545Z,920.00
2019-03-11T11:28:31.557Z,852.00
2019-03-11T11:29:31.546Z,1120.00
2019-03-11T11:30:31.534Z,1372.00
2019-03-11T11:31:31.510Z,812.00
2019-03-11T11:32:31.506Z,824.00
2019-03-11T11:33:31.526Z,764.00
2019-03-11T11:34:31.477Z,600.00
2019-03-11T11:35:31.476Z,636.00
2019-03-11T11:36:31.448Z,508.00
2019-03-11T11:37:32.355Z,764.00
2019-03-11T11:38:31.436Z,560.00
2019-03-11T11:39:31.415Z,768.00
2019-03-11T11:40:31.436Z,832.00
2019-03-11T11:41:31.394Z,1068.00
2019-03-11T11:42:31.400Z,844.00
2019-03-11T11:43:31.380Z,960.00
2019-03-11T11:44:31.377Z,1436.00
2019-03-11T11:45:31.364Z,1412.00
2019-03-11T11:46:31.348Z,1212.00
2019-03-11T11:47:31.327Z,1656.00
2019-03-11T11:48:31.335Z,1784.00
2019-03-11T11:49:31.340Z,1784.00
2019-03-11T11:50:31.307Z,1440.00
2019-03-11T11:51:31.286Z,1412.00
2019-03-11T11:52:31.264Z,1536.00
2019-03-11T11:53:31.284Z,1580.00
2019-03-11T11:54:31.241Z,1484.00
2019-03-11T11:55:31.264Z,1360.00
2019-03-11T11:56:31.246Z,1380.00
2019-03-11T11:57:31.211Z,1552.00
2019-03-11T11:58:31.211Z,1492.00
2019-03-11T11:59:31.217Z,1632.00
2019-03-11T12:00:31.199Z,1632.00
2019-03-11T12:01:31.167Z,1572.00
2019-03-11T12:02:31.152Z,1472.00
2019-03-11T12:03:31.152Z,1592.00
2019-03-11T12:04:31.163Z,1816.00
2019-03-11T12:05:31.142Z,1724.00
2019-03-11T12:06:31.123Z,1836.00
2019-03-11T12:07:31.140Z,1736.00
2019-03-11T12:08:31.127Z,1536.00
2019-03-11T12:09:31.076Z,1500.00
2019-03-11T12:10:31.135Z,1420.00
2019-03-11T12:11:31.054Z,1536.00
2019-03-11T12:12:31.045Z,1516.00
2019-03-11T12:13:31.033Z,1308.00
2019-03-11T12:14:31.077Z,1464.00
2019-03-11T12:15:31.012Z,1452.00
2019-03-11T12:16:31.001Z,1680.00
2019-03-11T12:17:31.047Z,1596.00
2019-03-11T12:18:31.043Z,1104.00
2019-03-11T12:19:30.961Z,1064.00
2019-03-11T12:20:30.980Z,1436.00
2019-03-11T12:21:30.942Z,1428.00
2019-03-11T12:22:30.929Z,1544.00
2019-03-11T12:23:30.945Z,1604.00
2019-03-11T12:24:30.916Z,1648.00
2019-03-11T12:25:30.893Z,1696.00
2019-03-11T12:26:30.888Z,1780.00
2019-03-11T12:27:30.871Z,1708.00
2019-03-11T12:28:30.888Z,1616.00
2019-03-11T12:29:30.854Z,1484.00
2019-03-11T12:30:30.836Z,1336.00
2019-03-11T12:31:30.833Z,1320.00
2019-03-11T12:32:30.844Z,1284.00
2019-03-11T12:33:30.817Z,996.00
2019-03-11T12:34:30.792Z,1024.00
2019-03-11T12:35:30.785Z,860.00
2019-03-11T12:36:30.783Z,744.00
2019-03-11T12:37:30.769Z,788.00
2019-03-11T12:38:30.749Z,728.00
2019-03-11T12:39:30.738Z,700.00
2019-03-11T12:40:30.730Z,888.00
2019-03-11T12:41:30.750Z,940.00
2019-03-11T12:42:30.712Z,772.00
2019-03-11T12:43:30.858Z,740.00
2019-03-11T12:44:30.683Z,664.00
2019-03-11T12:45:30.686Z,620.00
2019-03-11T12:46:30.675Z,604.00
2019-03-11T12:47:30.662Z,836.00